sensor_id;sensor_type;location;lat;lon;timestamp;P1;durP1;ratioP1;P2;durP2;ratioP2
3085;SDS011;52812;48.960;9.108;2022-11-23T00:01:34;6.43;;;4.60;;
3085;SDS011;52812;48.960;9.108;2022-11-23T00:04:05;6.37;;;4.40;;
3085;SDS011;52812;48.960;9.108;2022-11-23T00:06:33;10.80;;;4.83;;
3085;SDS011;52812;48.960;9.108;2022-11-23T00:08:59;7.17;;;4.43;;
3085;SDS011;52812;48.960;9.108;2022-11-23T00:11:25;7.83;;;4.80;;
3085;SDS011;52812;48.960;9.108;2022-11-23T00:13:52;20.17;;;9.53;;
3085;SDS011;52812;48.960;9.108;2022-11-23T00:16:19;11.40;;;7.30;;
3085;SDS011;52812;48.960;9.108;2022-11-23T00:18:46;6.83;;;4.47;;
3085;SDS011;52812;48.960;9.108;2022-11-23T00:21:14;14.53;;;5.10;;
3085;SDS011;52812;48.960;9.108;2022-11-23T00:23:41;10.70;;;5.70;;
3085;SDS011;52812;48.960;9.108;2022-11-23T00:26:08;11.87;;;6.07;;
3085;SDS011;52812;48.960;9.108;2022-11-23T00:28:34;13.00;;;6.10;;
3085;SDS011;52812;48.960;9.108;2022-11-23T00:31:11;7.43;;;5.00;;
3085;SDS011;52812;48.960;9.108;2022-11-23T00:33:38;7.60;;;5.70;;
3085;SDS011;52812;48.960;9.108;2022-11-23T00:36:05;9.40;;;5.60;;
3085;SDS011;52812;48.960;9.108;2022-11-23T00:38:32;8.87;;;4.93;;
3085;SDS011;52812;48.960;9.108;2022-11-23T00:41:05;8.47;;;5.40;;
3085;SDS011;52812;48.960;9.108;2022-11-23T00:43:32;6.63;;;4.27;;
3085;SDS011;52812;48.960;9.108;2022-11-23T00:46:02;7.43;;;4.50;;
3085;SDS011;52812;48.960;9.108;2022-11-23T00:48:29;9.17;;;4.50;;
3085;SDS011;52812;48.960;9.108;2022-11-23T00:50:55;7.17;;;4.20;;
3085;SDS011;52812;48.960;9.108;2022-11-23T00:53:20;9.10;;;5.53;;
3085;SDS011;52812;48.960;9.108;2022-11-23T00:55:50;6.40;;;4.43;;
3085;SDS011;52812;48.960;9.108;2022-11-23T00:58:19;7.10;;;4.40;;
3085;SDS011;52812;48.960;9.108;2022-11-23T01:00:45;5.73;;;4.00;;
3085;SDS011;52812;48.960;9.108;2022-11-23T01:03:11;5.93;;;4.40;;
3085;SDS011;52812;48.960;9.108;2022-11-23T01:05:37;9.83;;;4.53;;
3085;SDS011;52812;48.960;9.108;2022-11-23T01:08:03;7.77;;;4.33;;
3085;SDS011;52812;48.960;9.108;2022-11-23T01:10:29;5.43;;;4.20;;
3085;SDS011;52812;48.960;9.108;2022-11-23T01:12:55;5.53;;;4.33;;
3085;SDS011;52812;48.960;9.108;2022-11-23T01:15:21;5.40;;;4.40;;
3085;SDS011;52812;48.960;9.108;2022-11-23T01:17:46;6.43;;;4.43;;
3085;SDS011;52812;48.960;9.108;2022-11-23T01:20:12;7.20;;;4.80;;
3085;SDS011;52812;48.960;9.108;2022-11-23T01:22:37;5.93;;;4.37;;
3085;SDS011;52812;48.960;9.108;2022-11-23T01:25:03;8.40;;;4.03;;
3085;SDS011;52812;48.960;9.108;2022-11-23T01:27:29;8.20;;;4.63;;
3085;SDS011;52812;48.960;9.108;2022-11-23T01:29:54;9.10;;;4.80;;
3085;SDS011;52812;48.960;9.108;2022-11-23T01:32:20;6.07;;;4.00;;
3085;SDS011;52812;48.960;9.108;2022-11-23T01:34:45;4.43;;;3.60;;
3085;SDS011;52812;48.960;9.108;2022-11-23T01:37:11;3.90;;;3.50;;
3085;SDS011;52812;48.960;9.108;2022-11-23T01:39:36;5.97;;;3.37;;
3085;SDS011;52812;48.960;9.108;2022-11-23T01:42:02;4.57;;;3.60;;
3085;SDS011;52812;48.960;9.108;2022-11-23T01:44:31;7.83;;;3.97;;
3085;SDS011;52812;48.960;9.108;2022-11-23T01:47:02;8.13;;;3.90;;
3085;SDS011;52812;48.960;9.108;2022-11-23T01:49:34;8.17;;;4.20;;
3085;SDS011;52812;48.960;9.108;2022-11-23T01:52:06;5.37;;;3.63;;
3085;SDS011;52812;48.960;9.108;2022-11-23T01:54:37;6.07;;;4.13;;
3085;SDS011;52812;48.960;9.108;2022-11-23T01:57:24;7.30;;;4.13;;
3085;SDS011;52812;48.960;9.108;2022-11-23T01:59:53;8.93;;;4.40;;
3085;SDS011;52812;48.960;9.108;2022-11-23T02:02:20;7.50;;;4.00;;
3085;SDS011;52812;48.960;9.108;2022-11-23T02:04:46;7.27;;;4.63;;
3085;SDS011;52812;48.960;9.108;2022-11-23T02:07:15;11.07;;;4.33;;
3085;SDS011;52812;48.960;9.108;2022-11-23T02:09:42;6.83;;;4.50;;
3085;SDS011;52812;48.960;9.108;2022-11-23T02:12:11;8.70;;;4.53;;
3085;SDS011;52812;48.960;9.108;2022-11-23T02:14:37;5.30;;;3.80;;
3085;SDS011;52812;48.960;9.108;2022-11-23T02:17:03;7.33;;;4.47;;
3085;SDS011;52812;48.960;9.108;2022-11-23T02:22:01;8.43;;;4.30;;
3085;SDS011;52812;48.960;9.108;2022-11-23T02:24:35;7.00;;;3.97;;
3085;SDS011;52812;48.960;9.108;2022-11-23T02:27:08;4.87;;;3.33;;
3085;SDS011;52812;48.960;9.108;2022-11-23T02:29:33;5.20;;;3.97;;
3085;SDS011;52812;48.960;9.108;2022-11-23T02:31:59;5.93;;;4.20;;
3085;SDS011;52812;48.960;9.108;2022-11-23T02:34:25;6.10;;;4.13;;
3085;SDS011;52812;48.960;9.108;2022-11-23T02:36:54;8.23;;;4.30;;
3085;SDS011;52812;48.960;9.108;2022-11-23T02:39:27;6.83;;;4.07;;
3085;SDS011;52812;48.960;9.108;2022-11-23T02:41:56;4.80;;;3.60;;
3085;SDS011;52812;48.960;9.108;2022-11-23T03:03:56;8.73;;;3.70;;
3085;SDS011;52812;48.960;9.108;2022-11-23T03:06:22;7.30;;;4.00;;
3085;SDS011;52812;48.960;9.108;2022-11-23T03:08:47;7.67;;;3.97;;
3085;SDS011;52812;48.960;9.108;2022-11-23T03:11:13;8.13;;;4.00;;
3085;SDS011;52812;48.960;9.108;2022-11-23T03:13:39;6.37;;;3.77;;
3085;SDS011;52812;48.960;9.108;2022-11-23T03:16:04;6.27;;;3.50;;
3085;SDS011;52812;48.960;9.108;2022-11-23T03:18:30;5.50;;;3.80;;
3085;SDS011;52812;48.960;9.108;2022-11-23T03:21:00;7.20;;;3.67;;
3085;SDS011;52812;48.960;9.108;2022-11-23T03:23:27;6.07;;;3.83;;
3085;SDS011;52812;48.960;9.108;2022-11-23T03:25:56;5.10;;;3.83;;
3085;SDS011;52812;48.960;9.108;2022-11-23T03:28:22;6.80;;;4.30;;
3085;SDS011;52812;48.960;9.108;2022-11-23T03:30:48;8.37;;;4.27;;
3085;SDS011;52812;48.960;9.108;2022-11-23T03:33:14;5.50;;;4.10;;
3085;SDS011;52812;48.960;9.108;2022-11-23T03:35:40;8.97;;;4.87;;
3085;SDS011;52812;48.960;9.108;2022-11-23T03:38:05;10.80;;;4.63;;
3085;SDS011;52812;48.960;9.108;2022-11-23T03:40:31;5.80;;;4.47;;
3085;SDS011;52812;48.960;9.108;2022-11-23T03:42:57;9.67;;;4.60;;
3085;SDS011;52812;48.960;9.108;2022-11-23T03:45:22;4.97;;;3.60;;
3085;SDS011;52812;48.960;9.108;2022-11-23T03:47:48;8.17;;;4.53;;
3085;SDS011;52812;48.960;9.108;2022-11-23T03:50:13;6.93;;;4.67;;
3085;SDS011;52812;48.960;9.108;2022-11-23T03:52:39;5.73;;;4.03;;
3085;SDS011;52812;48.960;9.108;2022-11-23T03:55:05;8.00;;;4.10;;
3085;SDS011;52812;48.960;9.108;2022-11-23T03:57:30;5.73;;;3.50;;
3085;SDS011;52812;48.960;9.108;2022-11-23T03:59:56;8.73;;;4.80;;
3085;SDS011;52812;48.960;9.108;2022-11-23T04:02:22;5.93;;;4.30;;
3085;SDS011;52812;48.960;9.108;2022-11-23T04:04:47;6.37;;;4.07;;
3085;SDS011;52812;48.960;9.108;2022-11-23T04:07:13;12.90;;;4.80;;
3085;SDS011;52812;48.960;9.108;2022-11-23T04:09:38;10.20;;;4.70;;
3085;SDS011;52812;48.960;9.108;2022-11-23T04:12:04;7.23;;;4.07;;
3085;SDS011;52812;48.960;9.108;2022-11-23T04:14:29;5.97;;;4.10;;
3085;SDS011;52812;48.960;9.108;2022-11-23T04:16:55;7.10;;;4.17;;
3085;SDS011;52812;48.960;9.108;2022-11-23T04:19:21;7.30;;;4.60;;
3085;SDS011;52812;48.960;9.108;2022-11-23T04:21:46;5.30;;;3.90;;
3085;SDS011;52812;48.960;9.108;2022-11-23T04:24:12;6.80;;;4.50;;
3085;SDS011;52812;48.960;9.108;2022-11-23T04:26:37;6.50;;;4.10;;
3085;SDS011;52812;48.960;9.108;2022-11-23T04:29:04;5.07;;;4.00;;
3085;SDS011;52812;48.960;9.108;2022-11-23T04:31:30;6.27;;;4.20;;
3085;SDS011;52812;48.960;9.108;2022-11-23T04:33:55;8.43;;;4.40;;
3085;SDS011;52812;48.960;9.108;2022-11-23T04:36:21;5.47;;;4.07;;
3085;SDS011;52812;48.960;9.108;2022-11-23T04:38:46;6.80;;;4.10;;
3085;SDS011;52812;48.960;9.108;2022-11-23T04:41:12;7.30;;;3.67;;
3085;SDS011;52812;48.960;9.108;2022-11-23T04:43:38;5.70;;;3.57;;
3085;SDS011;52812;48.960;9.108;2022-11-23T04:46:03;5.40;;;3.90;;
3085;SDS011;52812;48.960;9.108;2022-11-23T04:48:29;6.47;;;4.30;;
3085;SDS011;52812;48.960;9.108;2022-11-23T04:50:55;9.67;;;4.90;;
3085;SDS011;52812;48.960;9.108;2022-11-23T04:53:21;6.90;;;4.73;;
3085;SDS011;52812;48.960;9.108;2022-11-23T04:55:47;9.73;;;4.27;;
3085;SDS011;52812;48.960;9.108;2022-11-23T04:58:13;8.40;;;4.40;;
3085;SDS011;52812;48.960;9.108;2022-11-23T05:00:38;8.50;;;4.77;;
3085;SDS011;52812;48.960;9.108;2022-11-23T05:03:04;7.47;;;4.53;;
3085;SDS011;52812;48.960;9.108;2022-11-23T05:05:30;8.43;;;4.93;;
3085;SDS011;52812;48.960;9.108;2022-11-23T05:07:56;7.93;;;5.67;;
3085;SDS011;52812;48.960;9.108;2022-11-23T05:10:22;9.93;;;5.40;;
3085;SDS011;52812;48.960;9.108;2022-11-23T05:12:47;8.53;;;5.23;;
3085;SDS011;52812;48.960;9.108;2022-11-23T05:15:13;8.00;;;5.93;;
3085;SDS011;52812;48.960;9.108;2022-11-23T05:17:39;10.10;;;5.40;;
3085;SDS011;52812;48.960;9.108;2022-11-23T05:20:04;10.30;;;5.67;;
3085;SDS011;52812;48.960;9.108;2022-11-23T05:22:31;10.93;;;6.03;;
3085;SDS011;52812;48.960;9.108;2022-11-23T05:24:57;10.90;;;6.50;;
3085;SDS011;52812;48.960;9.108;2022-11-23T05:27:22;10.57;;;6.50;;
3085;SDS011;52812;48.960;9.108;2022-11-23T05:29:48;9.40;;;6.17;;
3085;SDS011;52812;48.960;9.108;2022-11-23T05:32:14;7.80;;;5.77;;
3085;SDS011;52812;48.960;9.108;2022-11-23T05:34:39;7.57;;;4.80;;
3085;SDS011;52812;48.960;9.108;2022-11-23T05:37:05;10.10;;;5.93;;
3085;SDS011;52812;48.960;9.108;2022-11-23T05:39:30;8.87;;;5.63;;
3085;SDS011;52812;48.960;9.108;2022-11-23T05:41:56;8.63;;;6.43;;
3085;SDS011;52812;48.960;9.108;2022-11-23T05:44:22;9.10;;;6.80;;
3085;SDS011;52812;48.960;9.108;2022-11-23T05:46:47;11.33;;;6.70;;
3085;SDS011;52812;48.960;9.108;2022-11-23T05:49:13;10.60;;;7.10;;
3085;SDS011;52812;48.960;9.108;2022-11-23T05:51:38;7.97;;;6.50;;
3085;SDS011;52812;48.960;9.108;2022-11-23T05:54:04;8.80;;;6.00;;
3085;SDS011;52812;48.960;9.108;2022-11-23T05:56:30;9.27;;;5.57;;
3085;SDS011;52812;48.960;9.108;2022-11-23T05:58:55;9.23;;;5.37;;
3085;SDS011;52812;48.960;9.108;2022-11-23T06:01:21;6.97;;;5.30;;
3085;SDS011;52812;48.960;9.108;2022-11-23T06:03:48;8.53;;;5.23;;
3085;SDS011;52812;48.960;9.108;2022-11-23T06:06:14;7.60;;;5.10;;
3085;SDS011;52812;48.960;9.108;2022-11-23T06:08:40;7.33;;;5.57;;
3085;SDS011;52812;48.960;9.108;2022-11-23T06:11:05;10.03;;;5.87;;
3085;SDS011;52812;48.960;9.108;2022-11-23T06:13:31;9.77;;;6.20;;
3085;SDS011;52812;48.960;9.108;2022-11-23T06:15:57;8.33;;;5.57;;
3085;SDS011;52812;48.960;9.108;2022-11-23T06:18:23;12.90;;;6.07;;
3085;SDS011;52812;48.960;9.108;2022-11-23T06:20:52;6.80;;;5.40;;
3085;SDS011;52812;48.960;9.108;2022-11-23T06:23:19;14.37;;;6.63;;
3085;SDS011;52812;48.960;9.108;2022-11-23T06:25:45;10.97;;;5.80;;
3085;SDS011;52812;48.960;9.108;2022-11-23T06:28:10;13.43;;;6.00;;
3085;SDS011;52812;48.960;9.108;2022-11-23T06:30:42;10.80;;;5.80;;
3085;SDS011;52812;48.960;9.108;2022-11-23T06:33:08;8.60;;;5.30;;
3085;SDS011;52812;48.960;9.108;2022-11-23T06:35:34;9.57;;;5.70;;
3085;SDS011;52812;48.960;9.108;2022-11-23T06:37:59;12.13;;;6.00;;
3085;SDS011;52812;48.960;9.108;2022-11-23T06:40:25;10.13;;;5.63;;
3085;SDS011;52812;48.960;9.108;2022-11-23T06:42:56;14.70;;;7.03;;
3085;SDS011;52812;48.960;9.108;2022-11-23T06:45:22;9.70;;;5.60;;
3085;SDS011;52812;48.960;9.108;2022-11-23T06:47:48;11.50;;;5.70;;
3085;SDS011;52812;48.960;9.108;2022-11-23T06:50:13;9.80;;;5.80;;
3085;SDS011;52812;48.960;9.108;2022-11-23T06:52:39;8.10;;;5.70;;
3085;SDS011;52812;48.960;9.108;2022-11-23T06:55:05;11.10;;;5.80;;
3085;SDS011;52812;48.960;9.108;2022-11-23T06:57:31;10.97;;;5.87;;
3085;SDS011;52812;48.960;9.108;2022-11-23T06:59:56;8.90;;;5.37;;
3085;SDS011;52812;48.960;9.108;2022-11-23T07:02:22;10.00;;;5.67;;
3085;SDS011;52812;48.960;9.108;2022-11-23T07:04:49;13.80;;;6.00;;
3085;SDS011;52812;48.960;9.108;2022-11-23T07:07:15;10.27;;;5.60;;
3085;SDS011;52812;48.960;9.108;2022-11-23T07:09:40;11.70;;;6.50;;
3085;SDS011;52812;48.960;9.108;2022-11-23T07:12:06;9.93;;;5.60;;
3085;SDS011;52812;48.960;9.108;2022-11-23T07:14:32;9.90;;;5.40;;
3085;SDS011;52812;48.960;9.108;2022-11-23T07:16:57;12.20;;;5.80;;
3085;SDS011;52812;48.960;9.108;2022-11-23T07:19:23;13.67;;;6.30;;
3085;SDS011;52812;48.960;9.108;2022-11-23T07:21:48;7.50;;;5.43;;
3085;SDS011;52812;48.960;9.108;2022-11-23T07:24:14;8.33;;;5.70;;
3085;SDS011;52812;48.960;9.108;2022-11-23T07:26:40;12.03;;;5.40;;
3085;SDS011;52812;48.960;9.108;2022-11-23T07:29:05;6.50;;;4.70;;
3085;SDS011;52812;48.960;9.108;2022-11-23T07:31:31;10.50;;;5.23;;
3085;SDS011;52812;48.960;9.108;2022-11-23T07:33:56;9.33;;;4.90;;
3085;SDS011;52812;48.960;9.108;2022-11-23T07:36:22;10.20;;;5.43;;
3085;SDS011;52812;48.960;9.108;2022-11-23T07:38:47;11.27;;;5.07;;
3085;SDS011;52812;48.960;9.108;2022-11-23T07:41:13;9.50;;;5.80;;
3085;SDS011;52812;48.960;9.108;2022-11-23T07:43:39;8.07;;;4.90;;
3085;SDS011;52812;48.960;9.108;2022-11-23T07:46:04;7.30;;;4.60;;
3085;SDS011;52812;48.960;9.108;2022-11-23T07:48:30;8.80;;;5.57;;
3085;SDS011;52812;48.960;9.108;2022-11-23T07:50:56;8.87;;;4.73;;
3085;SDS011;52812;48.960;9.108;2022-11-23T07:53:21;11.60;;;5.13;;
3085;SDS011;52812;48.960;9.108;2022-11-23T07:55:48;10.13;;;5.20;;
3085;SDS011;52812;48.960;9.108;2022-11-23T07:58:13;10.80;;;4.50;;
3085;SDS011;52812;48.960;9.108;2022-11-23T08:00:39;10.60;;;5.77;;
3085;SDS011;52812;48.960;9.108;2022-11-23T08:03:04;8.27;;;5.20;;
3085;SDS011;52812;48.960;9.108;2022-11-23T08:05:30;9.43;;;5.10;;
3085;SDS011;52812;48.960;9.108;2022-11-23T08:07:58;8.30;;;5.27;;
3085;SDS011;52812;48.960;9.108;2022-11-23T08:10:25;8.93;;;5.00;;
3085;SDS011;52812;48.960;9.108;2022-11-23T08:12:51;11.03;;;4.93;;
3085;SDS011;52812;48.960;9.108;2022-11-23T08:15:17;9.80;;;4.17;;
3085;SDS011;52812;48.960;9.108;2022-11-23T08:17:42;8.73;;;4.80;;
3085;SDS011;52812;48.960;9.108;2022-11-23T08:20:08;7.87;;;4.67;;
3085;SDS011;52812;48.960;9.108;2022-11-23T08:22:34;8.93;;;4.83;;
3085;SDS011;52812;48.960;9.108;2022-11-23T08:24:59;10.60;;;5.50;;
3085;SDS011;52812;48.960;9.108;2022-11-23T08:27:25;13.37;;;5.50;;
3085;SDS011;52812;48.960;9.108;2022-11-23T08:29:50;11.00;;;4.63;;
3085;SDS011;52812;48.960;9.108;2022-11-23T08:32:16;7.43;;;4.20;;
3085;SDS011;52812;48.960;9.108;2022-11-23T08:34:42;10.07;;;4.50;;
3085;SDS011;52812;48.960;9.108;2022-11-23T08:37:11;10.67;;;4.30;;
3085;SDS011;52812;48.960;9.108;2022-11-23T08:39:46;9.10;;;4.00;;
3085;SDS011;52812;48.960;9.108;2022-11-23T08:42:12;11.80;;;4.23;;
3085;SDS011;52812;48.960;9.108;2022-11-23T08:44:37;9.23;;;3.80;;
3085;SDS011;52812;48.960;9.108;2022-11-23T08:47:03;8.63;;;3.97;;
3085;SDS011;52812;48.960;9.108;2022-11-23T08:49:28;9.23;;;4.00;;
3085;SDS011;52812;48.960;9.108;2022-11-23T08:51:54;9.17;;;4.93;;
3085;SDS011;52812;48.960;9.108;2022-11-23T08:54:20;8.03;;;4.10;;
3085;SDS011;52812;48.960;9.108;2022-11-23T08:56:48;8.60;;;4.10;;
3085;SDS011;52812;48.960;9.108;2022-11-23T08:59:14;7.33;;;4.63;;
3085;SDS011;52812;48.960;9.108;2022-11-23T09:01:41;8.47;;;4.27;;
3085;SDS011;52812;48.960;9.108;2022-11-23T09:04:08;9.37;;;4.90;;
3085;SDS011;52812;48.960;9.108;2022-11-23T09:06:33;11.13;;;5.00;;
3085;SDS011;52812;48.960;9.108;2022-11-23T09:08:59;8.17;;;4.07;;
3085;SDS011;52812;48.960;9.108;2022-11-23T09:11:26;9.07;;;4.57;;
3085;SDS011;52812;48.960;9.108;2022-11-23T09:13:51;9.60;;;5.00;;
3085;SDS011;52812;48.960;9.108;2022-11-23T09:16:17;7.03;;;4.33;;
3085;SDS011;52812;48.960;9.108;2022-11-23T09:18:43;8.47;;;4.40;;
3085;SDS011;52812;48.960;9.108;2022-11-23T09:21:08;8.57;;;4.60;;
3085;SDS011;52812;48.960;9.108;2022-11-23T09:23:34;6.90;;;3.90;;
3085;SDS011;52812;48.960;9.108;2022-11-23T09:26:00;14.43;;;4.57;;
3085;SDS011;52812;48.960;9.108;2022-11-23T09:28:27;6.43;;;4.20;;
3085;SDS011;52812;48.960;9.108;2022-11-23T09:30:53;11.63;;;4.03;;
3085;SDS011;52812;48.960;9.108;2022-11-23T09:33:20;8.23;;;3.93;;
3085;SDS011;52812;48.960;9.108;2022-11-23T09:35:46;7.73;;;3.53;;
3085;SDS011;52812;48.960;9.108;2022-11-23T09:38:12;7.20;;;3.53;;
3085;SDS011;52812;48.960;9.108;2022-11-23T09:40:38;6.57;;;3.97;;
3085;SDS011;52812;48.960;9.108;2022-11-23T09:46:07;7.07;;;3.70;;
3085;SDS011;52812;48.960;9.108;2022-11-23T09:49:16;6.03;;;3.70;;
3085;SDS011;52812;48.960;9.108;2022-11-23T09:51:44;6.23;;;3.70;;
3085;SDS011;52812;48.960;9.108;2022-11-23T09:54:30;5.23;;;3.70;;
3085;SDS011;52812;48.960;9.108;2022-11-23T09:57:00;5.43;;;3.70;;
3085;SDS011;52812;48.960;9.108;2022-11-23T10:01:54;7.57;;;4.07;;
3085;SDS011;52812;48.960;9.108;2022-11-23T10:04:20;6.57;;;3.77;;
3085;SDS011;52812;48.960;9.108;2022-11-23T10:15:20;6.10;;;3.67;;
3085;SDS011;52812;48.960;9.108;2022-11-23T10:23:54;9.30;;;3.67;;
3085;SDS011;52812;48.960;9.108;2022-11-23T10:26:36;8.27;;;3.93;;
3085;SDS011;52812;48.960;9.108;2022-11-23T10:29:50;6.03;;;3.80;;
3085;SDS011;52812;48.960;9.108;2022-11-23T10:31:51;7.60;;;3.77;;
3085;SDS011;52812;48.960;9.108;2022-11-23T10:34:22;7.13;;;4.00;;
3085;SDS011;52812;48.960;9.108;2022-11-23T10:37:20;5.63;;;3.50;;
3085;SDS011;52812;48.960;9.108;2022-11-23T10:39:45;8.23;;;3.53;;
3085;SDS011;52812;48.960;9.108;2022-11-23T10:42:13;5.53;;;3.23;;
3085;SDS011;52812;48.960;9.108;2022-11-23T10:45:02;6.63;;;3.33;;
3085;SDS011;52812;48.960;9.108;2022-11-23T10:50:10;4.53;;;2.77;;
3085;SDS011;52812;48.960;9.108;2022-11-23T10:53:01;6.30;;;2.93;;
3085;SDS011;52812;48.960;9.108;2022-11-23T10:58:27;5.93;;;2.40;;
3085;SDS011;52812;48.960;9.108;2022-11-23T11:00:59;6.30;;;2.43;;
3085;SDS011;52812;48.960;9.108;2022-11-23T11:03:30;6.20;;;2.23;;
3085;SDS011;52812;48.960;9.108;2022-11-23T11:05:57;3.43;;;1.90;;
3085;SDS011;52812;48.960;9.108;2022-11-23T11:08:31;2.93;;;1.67;;
3085;SDS011;52812;48.960;9.108;2022-11-23T11:11:10;4.27;;;2.00;;
3085;SDS011;52812;48.960;9.108;2022-11-23T11:13:48;3.30;;;1.80;;
3085;SDS011;52812;48.960;9.108;2022-11-23T11:16:18;3.83;;;2.03;;
3085;SDS011;52812;48.960;9.108;2022-11-23T11:18:57;5.10;;;2.00;;
3085;SDS011;52812;48.960;9.108;2022-11-23T11:21:31;3.77;;;1.80;;
3085;SDS011;52812;48.960;9.108;2022-11-23T11:24:05;3.10;;;1.70;;
3085;SDS011;52812;48.960;9.108;2022-11-23T11:26:47;4.40;;;2.27;;
3085;SDS011;52812;48.960;9.108;2022-11-23T11:29:28;4.70;;;2.07;;
3085;SDS011;52812;48.960;9.108;2022-11-23T11:32:03;2.80;;;1.60;;
3085;SDS011;52812;48.960;9.108;2022-11-23T11:34:46;5.90;;;2.70;;
3085;SDS011;52812;48.960;9.108;2022-11-23T11:37:39;4.60;;;1.87;;
3085;SDS011;52812;48.960;9.108;2022-11-23T11:41:10;2.33;;;1.80;;
3085;SDS011;52812;48.960;9.108;2022-11-23T11:45:50;5.97;;;2.00;;
3085;SDS011;52812;48.960;9.108;2022-11-23T11:48:21;4.37;;;1.90;;
3085;SDS011;52812;48.960;9.108;2022-11-23T11:50:54;3.30;;;1.70;;
3085;SDS011;52812;48.960;9.108;2022-11-23T11:53:23;5.33;;;2.20;;
3085;SDS011;52812;48.960;9.108;2022-11-23T11:56:03;4.53;;;1.90;;
3085;SDS011;52812;48.960;9.108;2022-11-23T11:58:36;2.80;;;1.60;;
3085;SDS011;52812;48.960;9.108;2022-11-23T12:01:07;5.70;;;2.07;;
3085;SDS011;52812;48.960;9.108;2022-11-23T12:03:56;6.40;;;2.47;;
3085;SDS011;52812;48.960;9.108;2022-11-23T12:06:31;5.03;;;2.63;;
3085;SDS011;52812;48.960;9.108;2022-11-23T12:09:15;4.40;;;2.30;;
3085;SDS011;52812;48.960;9.108;2022-11-23T12:11:43;3.90;;;1.80;;
3085;SDS011;52812;48.960;9.108;2022-11-23T12:14:12;4.20;;;2.00;;
3085;SDS011;52812;48.960;9.108;2022-11-23T12:22:35;3.73;;;1.80;;
3085;SDS011;52812;48.960;9.108;2022-11-23T12:25:19;5.07;;;1.80;;
3085;SDS011;52812;48.960;9.108;2022-11-23T12:30:52;4.63;;;2.30;;
3085;SDS011;52812;48.960;9.108;2022-11-23T12:38:49;4.10;;;2.57;;
3085;SDS011;52812;48.960;9.108;2022-11-23T12:41:23;5.60;;;2.43;;
3085;SDS011;52812;48.960;9.108;2022-11-23T12:47:29;4.77;;;2.30;;
3085;SDS011;52812;48.960;9.108;2022-11-23T12:50:03;5.90;;;2.33;;
3085;SDS011;52812;48.960;9.108;2022-11-23T12:52:44;7.03;;;2.43;;
3085;SDS011;52812;48.960;9.108;2022-11-23T12:55:29;3.70;;;2.00;;
3085;SDS011;52812;48.960;9.108;2022-11-23T12:58:04;4.10;;;2.13;;
3085;SDS011;52812;48.960;9.108;2022-11-23T13:00:51;4.50;;;2.20;;
3085;SDS011;52812;48.960;9.108;2022-11-23T13:22:57;2.50;;;2.17;;
3085;SDS011;52812;48.960;9.108;2022-11-23T13:25:27;4.50;;;2.23;;
3085;SDS011;52812;48.960;9.108;2022-11-23T13:27:57;3.80;;;2.07;;
3085;SDS011;52812;48.960;9.108;2022-11-23T13:30:43;2.00;;;1.80;;
3085;SDS011;52812;48.960;9.108;2022-11-23T13:40:37;3.17;;;1.70;;
3085;SDS011;52812;48.960;9.108;2022-11-23T13:43:11;2.50;;;1.70;;
3085;SDS011;52812;48.960;9.108;2022-11-23T13:45:39;2.63;;;1.70;;
3085;SDS011;52812;48.960;9.108;2022-11-23T13:50:34;3.13;;;1.60;;
3085;SDS011;52812;48.960;9.108;2022-11-23T13:53:01;2.37;;;1.50;;
3085;SDS011;52812;48.960;9.108;2022-11-23T13:55:37;2.80;;;1.63;;
3085;SDS011;52812;48.960;9.108;2022-11-23T14:00:49;3.73;;;1.73;;
3085;SDS011;52812;48.960;9.108;2022-11-23T14:06:21;4.83;;;1.90;;
3085;SDS011;52812;48.960;9.108;2022-11-23T14:18:04;4.40;;;2.03;;
3085;SDS011;52812;48.960;9.108;2022-11-23T14:20:41;4.03;;;2.40;;
3085;SDS011;52812;48.960;9.108;2022-11-23T14:34:17;2.63;;;2.30;;
3085;SDS011;52812;48.960;9.108;2022-11-23T14:42:13;4.67;;;2.00;;
3085;SDS011;52812;48.960;9.108;2022-11-23T14:44:41;5.00;;;2.00;;
3085;SDS011;52812;48.960;9.108;2022-11-23T14:47:08;3.00;;;2.00;;
3085;SDS011;52812;48.960;9.108;2022-11-23T14:49:35;4.20;;;2.00;;
3085;SDS011;52812;48.960;9.108;2022-11-23T14:52:14;3.67;;;2.07;;
3085;SDS011;52812;48.960;9.108;2022-11-23T14:54:52;3.00;;;2.10;;
3085;SDS011;52812;48.960;9.108;2022-11-23T14:57:21;3.43;;;2.20;;
3085;SDS011;52812;48.960;9.108;2022-11-23T14:59:50;3.00;;;1.73;;
3085;SDS011;52812;48.960;9.108;2022-11-23T15:02:20;2.97;;;1.77;;
3085;SDS011;52812;48.960;9.108;2022-11-23T15:07:48;3.83;;;2.13;;
3085;SDS011;52812;48.960;9.108;2022-11-23T15:13:24;6.97;;;2.73;;
3085;SDS011;52812;48.960;9.108;2022-11-23T15:15:52;2.57;;;2.13;;
3085;SDS011;52812;48.960;9.108;2022-11-23T15:18:26;3.93;;;2.43;;
3085;SDS011;52812;48.960;9.108;2022-11-23T15:20:53;7.60;;;2.97;;
3085;SDS011;52812;48.960;9.108;2022-11-23T15:23:19;3.83;;;2.20;;
3085;SDS011;52812;48.960;9.108;2022-11-23T15:25:53;2.30;;;2.10;;
3085;SDS011;52812;48.960;9.108;2022-11-23T15:28:24;4.27;;;2.17;;
3085;SDS011;52812;48.960;9.108;2022-11-23T15:30:51;4.03;;;2.30;;
3085;SDS011;52812;48.960;9.108;2022-11-23T15:33:18;4.50;;;2.30;;
3085;SDS011;52812;48.960;9.108;2022-11-23T15:35:45;4.80;;;2.23;;
3085;SDS011;52812;48.960;9.108;2022-11-23T15:38:12;4.63;;;2.20;;
3085;SDS011;52812;48.960;9.108;2022-11-23T15:40:43;3.67;;;2.20;;
3085;SDS011;52812;48.960;9.108;2022-11-23T15:43:13;3.13;;;2.20;;
3085;SDS011;52812;48.960;9.108;2022-11-23T15:48:16;4.27;;;2.40;;
3085;SDS011;52812;48.960;9.108;2022-11-23T15:50:46;4.10;;;2.50;;
3085;SDS011;52812;48.960;9.108;2022-11-23T15:53:12;3.70;;;2.80;;
3085;SDS011;52812;48.960;9.108;2022-11-23T15:55:38;5.57;;;3.00;;
3085;SDS011;52812;48.960;9.108;2022-11-23T15:58:04;8.67;;;4.40;;
3085;SDS011;52812;48.960;9.108;2022-11-23T16:00:32;8.20;;;4.97;;
3085;SDS011;52812;48.960;9.108;2022-11-23T16:08:35;6.83;;;4.23;;
3085;SDS011;52812;48.960;9.108;2022-11-23T16:11:01;5.90;;;3.87;;
3085;SDS011;52812;48.960;9.108;2022-11-23T16:13:34;6.97;;;3.77;;
3085;SDS011;52812;48.960;9.108;2022-11-23T16:16:03;7.77;;;4.33;;
3085;SDS011;52812;48.960;9.108;2022-11-23T16:18:33;4.87;;;3.83;;
3085;SDS011;52812;48.960;9.108;2022-11-23T16:21:00;6.27;;;4.50;;
3085;SDS011;52812;48.960;9.108;2022-11-23T16:23:49;5.17;;;3.60;;
3085;SDS011;52812;48.960;9.108;2022-11-23T16:26:18;7.00;;;4.70;;
3085;SDS011;52812;48.960;9.108;2022-11-23T16:31:25;7.00;;;3.90;;
3085;SDS011;52812;48.960;9.108;2022-11-23T16:33:59;4.77;;;3.87;;
3085;SDS011;52812;48.960;9.108;2022-11-23T16:36:25;6.03;;;4.00;;
3085;SDS011;52812;48.960;9.108;2022-11-23T16:38:52;6.20;;;3.90;;
3085;SDS011;52812;48.960;9.108;2022-11-23T16:41:18;7.17;;;4.00;;
3085;SDS011;52812;48.960;9.108;2022-11-23T16:43:44;5.27;;;4.07;;
3085;SDS011;52812;48.960;9.108;2022-11-23T16:46:11;7.50;;;5.10;;
3085;SDS011;52812;48.960;9.108;2022-11-23T16:48:38;8.37;;;4.50;;
3085;SDS011;52812;48.960;9.108;2022-11-23T16:51:05;6.33;;;5.60;;
3085;SDS011;52812;48.960;9.108;2022-11-23T16:53:34;8.13;;;5.90;;
3085;SDS011;52812;48.960;9.108;2022-11-23T16:56:01;11.33;;;7.13;;
3085;SDS011;52812;48.960;9.108;2022-11-23T16:58:32;9.73;;;6.60;;
3085;SDS011;52812;48.960;9.108;2022-11-23T17:01:02;9.50;;;7.10;;
3085;SDS011;52812;48.960;9.108;2022-11-23T17:03:28;9.20;;;6.10;;
3085;SDS011;52812;48.960;9.108;2022-11-23T17:05:54;10.80;;;7.67;;
3085;SDS011;52812;48.960;9.108;2022-11-23T17:08:20;12.90;;;8.00;;
3085;SDS011;52812;48.960;9.108;2022-11-23T17:10:46;9.20;;;7.40;;
3085;SDS011;52812;48.960;9.108;2022-11-23T17:13:19;9.33;;;7.30;;
3085;SDS011;52812;48.960;9.108;2022-11-23T17:15:48;13.30;;;5.83;;
3085;SDS011;52812;48.960;9.108;2022-11-23T17:18:14;5.73;;;4.20;;
3085;SDS011;52812;48.960;9.108;2022-11-23T17:20:41;4.10;;;3.07;;
3085;SDS011;52812;48.960;9.108;2022-11-23T17:23:07;6.33;;;3.40;;
3085;SDS011;52812;48.960;9.108;2022-11-23T17:25:33;6.13;;;3.80;;
3085;SDS011;52812;48.960;9.108;2022-11-23T17:28:00;5.60;;;3.40;;
3085;SDS011;52812;48.960;9.108;2022-11-23T17:30:28;6.70;;;3.83;;
3085;SDS011;52812;48.960;9.108;2022-11-23T17:32:53;7.30;;;3.83;;
3085;SDS011;52812;48.960;9.108;2022-11-23T17:35:19;5.33;;;3.77;;